createdAt,value
2018-05-26T00:01:50.456Z,53.35
2018-05-26T00:04:16.440Z,53.34
2018-05-26T00:06:42.425Z,53.35
2018-05-26T00:09:08.419Z,53.32
2018-05-26T00:11:34.411Z,53.31
2018-05-26T00:14:00.398Z,53.31
2018-05-26T00:16:26.405Z,53.30
2018-05-26T00:18:52.378Z,53.33
2018-05-26T00:21:18.360Z,53.32
2018-05-26T00:23:44.344Z,53.31
2018-05-26T00:26:10.327Z,53.24
2018-05-26T00:28:36.322Z,53.27
2018-05-26T00:31:02.296Z,53.28
2018-05-26T00:33:28.285Z,53.27
2018-05-26T00:35:54.268Z,53.26
2018-05-26T00:38:20.243Z,53.24
2018-05-26T00:40:46.229Z,53.25
2018-05-26T00:43:12.206Z,53.24
2018-05-26T00:45:38.187Z,53.23
2018-05-26T00:48:04.166Z,53.23
2018-05-26T00:50:30.157Z,53.23
2018-05-26T00:52:56.141Z,53.22
2018-05-26T00:55:22.125Z,53.22
2018-05-26T00:57:48.116Z,53.21
2018-05-26T01:00:14.107Z,53.19
2018-05-26T01:02:40.080Z,53.22
2018-05-26T01:05:06.071Z,53.19
2018-05-26T01:07:32.102Z,53.19
2018-05-26T01:09:58.081Z,53.20
2018-05-26T01:12:24.071Z,53.18
2018-05-26T01:14:50.065Z,53.18
2018-05-26T01:17:16.085Z,53.18
2018-05-26T01:19:42.034Z,53.18
2018-05-26T01:22:08.045Z,53.17
2018-05-26T01:24:34.030Z,53.15
2018-05-26T01:27:00.004Z,53.17
2018-05-26T01:29:25.988Z,53.16
2018-05-26T01:31:51.969Z,53.17
2018-05-26T01:34:17.949Z,53.14
2018-05-26T01:36:43.930Z,53.12
2018-05-26T01:39:09.908Z,53.11
2018-05-26T01:41:35.895Z,53.16
2018-05-26T01:44:01.874Z,53.14
2018-05-26T01:46:27.858Z,53.15
2018-05-26T01:48:53.839Z,53.13
2018-05-26T01:51:19.825Z,53.12
2018-05-26T01:53:45.801Z,53.14
2018-05-26T01:56:11.792Z,53.12
2018-05-26T01:58:37.770Z,53.10
2018-05-26T02:01:03.793Z,53.12
2018-05-26T02:03:29.810Z,53.10
2018-05-26T02:05:55.756Z,53.12
2018-05-26T02:08:21.764Z,53.08
2018-05-26T02:10:47.738Z,53.08
2018-05-26T02:13:13.751Z,53.06
2018-05-26T02:15:39.740Z,53.03
2018-05-26T02:18:05.714Z,53.08
2018-05-26T02:20:31.694Z,53.06
2018-05-26T02:22:57.680Z,53.07
2018-05-26T02:25:23.660Z,53.05
2018-05-26T02:27:49.633Z,53.06
2018-05-26T02:30:15.648Z,53.04
2018-05-26T02:32:41.650Z,53.06
2018-05-26T02:35:07.635Z,53.05
2018-05-26T02:37:33.609Z,53.02
2018-05-26T02:39:59.595Z,53.01
2018-05-26T02:42:25.627Z,53.00
2018-05-26T02:44:51.616Z,52.97
2018-05-26T02:47:17.593Z,53.02
2018-05-26T02:49:43.582Z,53.04
2018-05-26T02:52:09.591Z,53.01
2018-05-26T02:54:35.582Z,53.01
2018-05-26T02:57:01.564Z,52.99
2018-05-26T02:59:27.584Z,53.00
2018-05-26T03:01:53.572Z,53.09
2018-05-26T03:04:19.582Z,53.09
2018-05-26T03:06:45.566Z,53.12
2018-05-26T03:09:11.550Z,53.14
2018-05-26T03:11:37.537Z,53.13
2018-05-26T03:14:03.551Z,53.19
2018-05-26T03:16:29.527Z,53.30
2018-05-26T03:18:55.516Z,53.32
2018-05-26T03:21:21.499Z,53.34
2018-05-26T03:23:47.483Z,53.44
2018-05-26T03:26:13.466Z,53.46
2018-05-26T03:28:39.485Z,53.48
2018-05-26T03:31:05.482Z,53.53
2018-05-26T03:33:31.473Z,53.45
2018-05-26T03:35:57.471Z,53.60
2018-05-26T03:38:23.449Z,53.51
2018-05-26T03:40:49.430Z,53.55
2018-05-26T03:43:15.416Z,53.61
2018-05-26T03:45:41.402Z,53.76
2018-05-26T03:48:07.386Z,53.77
2018-05-26T03:50:33.378Z,53.66
2018-05-26T03:52:59.362Z,53.61
2018-05-26T03:55:25.343Z,53.56
2018-05-26T03:57:51.320Z,53.51
2018-05-26T04:00:17.330Z,53.52
2018-05-26T04:02:43.307Z,53.47
2018-05-26T04:05:09.288Z,53.42
2018-05-26T04:07:35.262Z,53.41
2018-05-26T04:10:01.239Z,53.41
2018-05-26T04:12:27.229Z,53.44
2018-05-26T04:14:53.210Z,53.44
2018-05-26T04:17:19.193Z,53.35
2018-05-26T04:19:45.176Z,53.47
2018-05-26T04:22:11.155Z,53.35
2018-05-26T04:24:37.160Z,53.30
2018-05-26T04:27:03.184Z,53.22
2018-05-26T04:29:29.161Z,53.18
2018-05-26T04:31:55.142Z,53.23
2018-05-26T04:34:21.123Z,53.22
2018-05-26T04:36:47.095Z,53.22
2018-05-26T04:39:13.081Z,53.17
2018-05-26T04:41:39.059Z,53.21
2018-05-26T04:44:05.051Z,53.22
2018-05-26T04:46:31.054Z,53.21
2018-05-26T04:48:57.040Z,53.27
2018-05-26T04:51:23.024Z,53.34
2018-05-26T04:53:49.006Z,53.35
2018-05-26T04:56:14.987Z,53.29
2018-05-26T04:58:40.981Z,53.32
2018-05-26T05:01:06.967Z,53.29
2018-05-26T05:03:32.948Z,53.46
2018-05-26T05:05:58.942Z,53.36
2018-05-26T05:08:24.919Z,53.42
2018-05-26T05:10:50.906Z,53.38
2018-05-26T05:13:16.888Z,53.50
2018-05-26T05:15:42.922Z,53.55
2018-05-26T05:18:08.903Z,53.59
2018-05-26T05:20:34.911Z,53.73
2018-05-26T05:23:00.903Z,53.92
2018-05-26T05:25:26.885Z,53.66
2018-05-26T05:27:52.874Z,53.61
2018-05-26T05:30:18.887Z,53.48
2018-05-26T05:32:44.883Z,53.44
2018-05-26T05:35:10.892Z,53.87
2018-05-26T05:37:36.932Z,53.74
2018-05-26T05:40:02.872Z,53.82
2018-05-26T05:42:28.928Z,53.64
2018-05-26T05:44:54.935Z,53.73
2018-05-26T05:47:20.905Z,53.81
2018-05-26T05:49:46.900Z,54.21
2018-05-26T05:52:12.875Z,54.03
2018-05-26T05:54:38.860Z,54.07
2018-05-26T05:57:04.845Z,54.17
2018-05-26T05:59:30.832Z,54.32
2018-05-26T06:01:56.821Z,54.53
2018-05-26T06:04:22.815Z,54.07
2018-05-26T06:06:48.796Z,54.06
2018-05-26T06:09:14.786Z,54.30
2018-05-26T06:11:40.769Z,54.24
2018-05-26T06:14:06.819Z,54.21
2018-05-26T06:16:32.798Z,54.55
2018-05-26T06:18:58.778Z,54.35
2018-05-26T06:21:24.758Z,54.67
2018-05-26T06:23:50.782Z,54.25
2018-05-26T06:26:16.793Z,54.16
2018-05-26T06:28:42.759Z,54.46
2018-05-26T06:31:08.768Z,54.62
2018-05-26T06:33:34.776Z,54.82
2018-05-26T06:36:00.774Z,54.34
2018-05-26T06:38:26.716Z,54.29
2018-05-26T06:40:52.726Z,54.26
2018-05-26T06:43:18.702Z,54.31
2018-05-26T06:45:44.684Z,54.37
2018-05-26T06:48:10.731Z,54.32
2018-05-26T06:50:36.684Z,54.57
2018-05-26T06:53:02.668Z,54.17
2018-05-26T06:55:28.668Z,54.39
2018-05-26T06:57:54.650Z,54.43
2018-05-26T07:00:21.132Z,54.11
2018-05-26T07:02:47.189Z,54.08
2018-05-26T07:05:13.131Z,54.10
2018-05-26T07:07:39.112Z,54.08
2018-05-26T07:10:05.093Z,54.12
2018-05-26T07:12:31.081Z,54.09
2018-05-26T07:14:57.056Z,54.08
2018-05-26T07:17:23.073Z,54.08
2018-05-26T07:19:49.025Z,54.11
2018-05-26T07:22:15.024Z,54.10
2018-05-26T07:24:41.007Z,54.40
2018-05-26T07:27:06.995Z,54.35
2018-05-26T07:29:32.982Z,54.25
2018-05-26T07:31:58.967Z,54.25
2018-05-26T07:34:24.954Z,54.25
2018-05-26T07:36:50.934Z,54.08
2018-05-26T07:39:16.938Z,54.09
2018-05-26T07:41:42.929Z,54.27
2018-05-26T07:44:08.920Z,54.72
2018-05-26T07:46:35.540Z,55.15
2018-05-26T07:49:01.524Z,55.35
2018-05-26T07:51:28.143Z,55.09
2018-05-26T07:53:54.128Z,54.49
2018-05-26T07:56:20.105Z,54.58
2018-05-26T07:58:46.126Z,54.47
2018-05-26T08:01:12.205Z,54.66
2018-05-26T08:03:38.191Z,54.47
2018-05-26T08:06:04.183Z,54.57
2018-05-26T08:08:30.171Z,54.67
2018-05-26T08:10:56.167Z,54.36
2018-05-26T08:13:22.152Z,54.57
2018-05-26T08:15:48.135Z,54.71
2018-05-26T08:18:14.119Z,54.32
2018-05-26T08:20:40.500Z,54.50
2018-05-26T08:23:06.486Z,54.57
2018-05-26T08:25:32.461Z,54.67
2018-05-26T08:27:58.573Z,54.82
2018-05-26T08:30:24.550Z,54.72
2018-05-26T08:32:50.560Z,54.54
2018-05-26T08:35:16.587Z,54.80
2018-05-26T08:37:42.569Z,55.38
2018-05-26T08:40:08.545Z,55.07
2018-05-26T08:42:34.576Z,55.06
2018-05-26T08:45:00.552Z,54.92
2018-05-26T08:47:26.543Z,54.87
2018-05-26T08:49:52.524Z,55.04
2018-05-26T08:52:18.562Z,54.96
2018-05-26T08:54:44.566Z,54.99
2018-05-26T08:57:10.555Z,55.03
2018-05-26T08:59:36.540Z,55.06
2018-05-26T09:02:02.520Z,54.91
2018-05-26T09:04:28.512Z,55.03
2018-05-26T09:06:54.504Z,55.13
2018-05-26T09:09:20.487Z,55.10
2018-05-26T09:11:46.525Z,54.85
2018-05-26T09:14:12.470Z,54.88
2018-05-26T09:16:38.491Z,54.92
2018-05-26T09:19:04.449Z,54.64
2018-05-26T09:21:30.428Z,54.99
2018-05-26T09:23:56.463Z,55.05
2018-05-26T09:26:22.412Z,54.97
2018-05-26T09:28:48.438Z,54.78
2018-05-26T09:31:14.473Z,54.88
2018-05-26T09:33:40.419Z,54.82
2018-05-26T09:36:06.411Z,54.69
2018-05-26T09:38:32.396Z,54.65
2018-05-26T09:40:58.378Z,54.55
2018-05-26T09:43:24.381Z,54.48
2018-05-26T09:45:50.386Z,54.52
2018-05-26T09:48:16.364Z,54.61
2018-05-26T09:50:42.492Z,54.41
2018-05-26T09:53:08.476Z,54.57
2018-05-26T09:55:34.469Z,54.48
2018-05-26T09:58:00.454Z,54.46
2018-05-26T10:00:26.437Z,54.50
2018-05-26T10:02:52.462Z,54.46
2018-05-26T10:05:18.464Z,54.53
2018-05-26T10:07:44.460Z,54.43
2018-05-26T10:10:10.431Z,54.40
2018-05-26T10:12:36.411Z,54.53
2018-05-26T10:15:02.401Z,54.65
2018-05-26T10:17:28.423Z,54.44
2018-05-26T10:19:54.413Z,54.77
2018-05-26T10:22:20.394Z,54.85
2018-05-26T10:24:46.484Z,55.03
2018-05-26T10:27:12.558Z,55.00
2018-05-26T10:29:38.553Z,54.94
2018-05-26T10:32:04.531Z,54.88
2018-05-26T10:34:30.539Z,55.22
2018-05-26T10:36:56.532Z,55.06
2018-05-26T10:39:22.548Z,55.27
2018-05-26T10:41:48.528Z,55.49
2018-05-26T10:44:14.516Z,55.47
2018-05-26T10:46:40.502Z,55.33
2018-05-26T10:49:06.481Z,55.13
2018-05-26T10:51:32.459Z,55.15
2018-05-26T10:53:58.435Z,55.17
2018-05-26T10:56:24.468Z,55.01
2018-05-26T10:58:50.464Z,54.99
2018-05-26T11:01:16.439Z,55.26
2018-05-26T11:03:42.460Z,55.07
2018-05-26T11:06:08.435Z,55.28
2018-05-26T11:08:34.416Z,55.27
2018-05-26T11:11:00.417Z,55.32
2018-05-26T11:13:26.451Z,55.28
2018-05-26T11:15:52.407Z,55.35
2018-05-26T11:18:18.394Z,55.35
2018-05-26T11:20:44.418Z,55.84
2018-05-26T11:23:10.401Z,55.96
2018-05-26T11:25:36.389Z,56.24
2018-05-26T11:28:02.382Z,55.64
2018-05-26T11:30:28.666Z,55.46
2018-05-26T11:32:54.618Z,54.96
2018-05-26T11:35:20.592Z,54.86
2018-05-26T11:37:46.586Z,54.34
2018-05-26T11:40:12.638Z,53.74
2018-05-26T11:42:38.621Z,53.52
2018-05-26T11:45:04.616Z,52.87
2018-05-26T11:47:30.595Z,52.53
2018-05-26T11:49:56.593Z,52.69
2018-05-26T11:52:22.609Z,52.52
2018-05-26T11:54:48.591Z,52.24
2018-05-26T11:57:14.604Z,51.81
2018-05-26T11:59:40.589Z,51.72
2018-05-26T12:02:06.631Z,51.94
2018-05-26T12:04:32.586Z,51.86
2018-05-26T12:06:58.572Z,51.77
2018-05-26T12:09:24.563Z,50.91
2018-05-26T12:11:50.541Z,51.40
2018-05-26T12:14:16.557Z,51.49
2018-05-26T12:16:42.551Z,51.64
2018-05-26T12:19:08.589Z,51.83
2018-05-26T12:21:34.601Z,51.62
2018-05-26T12:24:00.577Z,51.86
2018-05-26T12:26:26.557Z,51.79
2018-05-26T12:28:52.547Z,51.81
2018-05-26T12:31:18.601Z,51.99
2018-05-26T12:33:44.584Z,52.11
2018-05-26T12:36:10.590Z,52.20
2018-05-26T12:38:36.643Z,52.31
2018-05-26T12:41:02.600Z,52.39
2018-05-26T12:43:28.618Z,52.48
2018-05-26T12:45:54.590Z,52.53
2018-05-26T12:48:20.568Z,52.51
2018-05-26T12:50:46.549Z,52.51
2018-05-26T12:53:12.535Z,52.58
2018-05-26T12:55:38.516Z,52.71
2018-05-26T12:58:04.494Z,52.78
2018-05-26T13:00:30.474Z,52.73
2018-05-26T13:02:56.452Z,52.78
2018-05-26T13:05:22.436Z,52.83
2018-05-26T13:07:48.412Z,52.95
2018-05-26T13:10:14.427Z,53.07
2018-05-26T13:12:40.404Z,53.15
2018-05-26T13:15:06.381Z,53.09
2018-05-26T13:17:32.394Z,53.28
2018-05-26T13:19:58.381Z,53.25
2018-05-26T13:22:24.358Z,53.35
2018-05-26T13:24:50.354Z,53.39
2018-05-26T13:27:16.338Z,53.43
2018-05-26T13:29:42.386Z,53.44
2018-05-26T13:32:08.336Z,53.55
2018-05-26T13:34:34.315Z,53.44
2018-05-26T13:37:00.328Z,53.55
2018-05-26T13:39:26.283Z,53.55
2018-05-26T13:41:52.268Z,53.57
2018-05-26T13:44:18.247Z,53.47
2018-05-26T13:46:44.281Z,53.61
2018-05-26T13:49:10.271Z,53.67
2018-05-26T13:51:36.321Z,53.70
2018-05-26T13:54:02.252Z,53.66
2018-05-26T13:56:28.276Z,53.76
2018-05-26T13:58:54.248Z,53.81
2018-05-26T14:01:20.198Z,53.61
2018-05-26T14:03:46.184Z,53.87
2018-05-26T14:06:12.171Z,53.90
2018-05-26T14:08:38.200Z,54.07
2018-05-26T14:11:04.187Z,53.92
2018-05-26T14:13:30.156Z,54.19
2018-05-26T14:15:56.143Z,54.10
2018-05-26T14:18:22.137Z,54.33
2018-05-26T14:20:48.118Z,54.26
2018-05-26T14:23:14.145Z,54.23
2018-05-26T14:25:40.708Z,54.23
2018-05-26T14:28:08.269Z,54.12
2018-05-26T14:30:34.959Z,54.10
2018-05-26T14:33:02.901Z,54.30
2018-05-26T14:35:29.314Z,54.11
2018-05-26T14:37:55.948Z,54.14
2018-05-26T14:40:22.590Z,54.16
2018-05-26T14:42:49.430Z,54.17
2018-05-26T14:45:15.473Z,54.08
2018-05-26T14:47:41.660Z,54.06
2018-05-26T14:50:07.710Z,54.10
2018-05-26T14:52:33.646Z,54.06
2018-05-26T14:54:59.616Z,53.89
2018-05-26T14:57:25.598Z,54.03
2018-05-26T14:59:51.592Z,53.97
2018-05-26T15:02:17.579Z,53.85
2018-05-26T15:05:14.077Z,53.93
2018-05-26T15:07:23.016Z,54.07
2018-05-26T15:09:49.148Z,54.13
2018-05-26T15:12:15.141Z,54.18
2018-05-26T15:14:41.121Z,54.19
2018-05-26T15:17:07.127Z,54.11
2018-05-26T15:19:33.157Z,54.11
2018-05-26T15:21:59.268Z,54.12
2018-05-26T15:24:25.322Z,53.99
2018-05-26T15:26:51.305Z,54.02
2018-05-26T15:29:17.329Z,53.99
2018-05-26T15:31:43.369Z,53.94
2018-05-26T15:34:09.370Z,53.94
2018-05-26T15:36:35.359Z,53.83
2018-05-26T15:39:01.356Z,54.16
2018-05-26T15:41:27.330Z,54.39
2018-05-26T15:43:53.323Z,54.44
2018-05-26T15:46:19.307Z,54.33
2018-05-26T15:48:45.297Z,54.14
2018-05-26T15:51:11.315Z,54.17
2018-05-26T15:53:37.304Z,54.11
2018-05-26T15:56:03.288Z,53.87
2018-05-26T15:58:29.277Z,53.91
2018-05-26T16:00:56.763Z,53.92
2018-05-26T16:03:23.094Z,53.87
2018-05-26T16:05:50.792Z,53.86
2018-05-26T16:08:22.753Z,53.74
2018-05-26T16:10:49.564Z,53.73
2018-05-26T16:13:17.538Z,53.66
2018-05-26T16:15:44.720Z,54.03
2018-05-26T16:18:13.184Z,54.13
2018-05-26T16:20:41.587Z,54.31
2018-05-26T16:23:08.480Z,54.16
2018-05-26T16:25:36.129Z,54.28
2018-05-26T16:28:03.135Z,54.07
2018-05-26T16:30:29.845Z,54.18
2018-05-26T16:32:57.815Z,54.37
2018-05-26T16:35:28.471Z,54.48
2018-05-26T16:37:54.883Z,54.38
2018-05-26T16:40:24.728Z,54.62
2018-05-26T16:42:56.768Z,54.43
2018-05-26T16:45:24.080Z,54.90
2018-05-26T16:47:50.893Z,54.97
2018-05-26T16:50:22.513Z,55.02
2018-05-26T16:52:47.732Z,55.18
2018-05-26T16:55:14.463Z,55.17
2018-05-26T16:57:41.205Z,55.21
2018-05-26T17:00:07.545Z,54.98
2018-05-26T17:02:33.710Z,55.12
2018-05-26T17:04:59.724Z,54.89
2018-05-26T17:07:25.747Z,55.20
2018-05-26T17:09:51.756Z,55.07
2018-05-26T17:12:17.745Z,55.16
2018-05-26T17:14:43.754Z,55.01
2018-05-26T17:17:09.738Z,55.18
2018-05-26T17:19:35.736Z,55.15
2018-05-26T17:22:01.726Z,55.00
2018-05-26T17:24:27.714Z,55.03
2018-05-26T17:26:53.708Z,54.66
2018-05-26T17:29:19.785Z,54.97
2018-05-26T17:31:45.766Z,54.78
2018-05-26T17:34:11.751Z,54.87
2018-05-26T17:36:37.874Z,54.94
2018-05-26T17:39:03.838Z,54.94
2018-05-26T17:41:29.826Z,54.71
2018-05-26T17:43:55.862Z,54.77
2018-05-26T17:46:21.856Z,54.57
2018-05-26T17:48:47.843Z,54.92
2018-05-26T17:51:13.839Z,54.82
2018-05-26T17:53:39.821Z,54.94
2018-05-26T17:56:05.820Z,54.87
2018-05-26T17:58:31.809Z,54.92
2018-05-26T18:00:57.791Z,55.01
2018-05-26T18:03:23.791Z,54.78
2018-05-26T18:06:04.346Z,55.01
2018-05-26T18:08:33.188Z,54.89
2018-05-26T18:11:13.800Z,54.75
2018-05-26T18:13:35.767Z,54.84
2018-05-26T18:16:12.218Z,54.85
2018-05-26T18:18:38.182Z,54.95
2018-05-26T18:21:04.200Z,54.79
2018-05-26T18:23:30.228Z,55.17
2018-05-26T18:25:56.335Z,55.29
2018-05-26T18:28:22.298Z,55.39
2018-05-26T18:30:49.243Z,55.35
2018-05-26T18:33:14.295Z,55.34
2018-05-26T18:35:40.423Z,54.97
2018-05-26T18:38:06.414Z,54.87
2018-05-26T18:40:32.397Z,54.93
2018-05-26T18:42:58.491Z,54.90
2018-05-26T18:45:24.507Z,54.99
2018-05-26T18:47:50.495Z,55.04
2018-05-26T18:50:16.478Z,54.91
2018-05-26T18:52:42.466Z,54.78
2018-05-26T18:55:08.500Z,55.01
2018-05-26T18:57:34.496Z,54.98
2018-05-26T19:00:00.483Z,54.79
2018-05-26T19:02:26.470Z,54.79
2018-05-26T19:04:52.505Z,55.22
2018-05-26T19:07:18.506Z,54.93
2018-05-26T19:09:44.488Z,54.74
2018-05-26T19:12:10.472Z,55.03
2018-05-26T19:14:36.485Z,55.00
2018-05-26T19:17:02.471Z,55.10
2018-05-26T19:19:28.471Z,54.98
2018-05-26T19:21:54.492Z,54.78
2018-05-26T19:24:20.495Z,54.78
2018-05-26T19:26:46.475Z,55.08
2018-05-26T19:29:12.483Z,54.93
2018-05-26T19:31:38.488Z,54.69
2018-05-26T19:34:04.485Z,54.92
2018-05-26T19:36:30.472Z,55.16
2018-05-26T19:38:56.462Z,55.17
2018-05-26T19:41:22.448Z,55.21
2018-05-26T19:43:48.459Z,55.27
2018-05-26T19:46:14.451Z,54.90
2018-05-26T19:48:40.437Z,55.19
2018-05-26T19:51:06.462Z,55.05
2018-05-26T19:53:32.511Z,55.20
2018-05-26T19:55:58.492Z,55.22
2018-05-26T19:58:24.546Z,54.93
2018-05-26T20:00:50.530Z,55.24
2018-05-26T20:03:16.679Z,55.29
2018-05-26T20:05:42.670Z,55.08
2018-05-26T20:08:08.731Z,55.06
2018-05-26T20:10:34.734Z,54.84
2018-05-26T20:13:05.070Z,54.77
2018-05-26T20:15:31.186Z,54.82
2018-05-26T20:17:57.452Z,54.70
2018-05-26T20:20:23.622Z,54.70
2018-05-26T20:22:49.584Z,54.82
2018-05-26T20:25:15.754Z,54.63
2018-05-26T20:27:41.743Z,54.62
2018-05-26T20:30:07.763Z,54.66
2018-05-26T20:32:33.755Z,54.64
2018-05-26T20:34:59.737Z,54.58
2018-05-26T20:37:25.727Z,54.52
2018-05-26T20:39:51.707Z,54.48
2018-05-26T20:42:17.689Z,54.69
2018-05-26T20:44:43.667Z,54.69
2018-05-26T20:47:09.667Z,54.90
2018-05-26T20:49:35.744Z,54.62
2018-05-26T20:52:01.723Z,54.59
2018-05-26T20:54:27.708Z,54.55
2018-05-26T20:56:53.704Z,54.58
2018-05-26T20:59:19.721Z,54.56
2018-05-26T21:01:45.705Z,54.58
2018-05-26T21:04:11.683Z,54.69
2018-05-26T21:06:37.678Z,54.67
2018-05-26T21:09:03.659Z,54.59
2018-05-26T21:11:29.660Z,54.60
2018-05-26T21:13:55.653Z,54.55
2018-05-26T21:16:21.637Z,54.57
2018-05-26T21:18:47.623Z,54.65
2018-05-26T21:21:13.641Z,54.58
2018-05-26T21:23:39.614Z,54.63
2018-05-26T21:26:05.600Z,54.58
2018-05-26T21:28:31.611Z,54.60
2018-05-26T21:30:57.563Z,54.60
2018-05-26T21:33:23.548Z,54.66
2018-05-26T21:35:49.531Z,54.60
2018-05-26T21:38:15.523Z,54.66
2018-05-26T21:40:41.510Z,54.58
2018-05-26T21:43:07.487Z,54.61
2018-05-26T21:45:33.474Z,54.66
2018-05-26T21:47:59.466Z,54.62
2018-05-26T21:50:25.489Z,54.62
2018-05-26T21:52:51.473Z,54.58
2018-05-26T21:55:17.454Z,54.59
2018-05-26T21:57:43.435Z,54.57
2018-05-26T22:00:09.430Z,54.57
2018-05-26T22:02:35.410Z,54.57
2018-05-26T22:05:01.387Z,54.58
2018-05-26T22:07:27.366Z,54.61
2018-05-26T22:09:53.348Z,54.59
2018-05-26T22:12:19.323Z,54.58
2018-05-26T22:14:45.303Z,54.47
2018-05-26T22:17:11.280Z,54.48
2018-05-26T22:19:37.266Z,54.50
2018-05-26T22:22:03.252Z,54.46
2018-05-26T22:24:29.236Z,54.43
2018-05-26T22:26:55.219Z,54.42
2018-05-26T22:29:21.245Z,54.37
2018-05-26T22:31:47.199Z,54.34
2018-05-26T22:34:13.199Z,54.32
2018-05-26T22:36:39.190Z,54.32
2018-05-26T22:39:05.179Z,54.29
2018-05-26T22:41:31.162Z,54.30
2018-05-26T22:43:57.143Z,54.26
2018-05-26T22:46:23.136Z,54.43
2018-05-26T22:48:49.205Z,54.96
2018-05-26T22:51:15.176Z,55.63
2018-05-26T22:53:41.168Z,55.92
2018-05-26T22:56:07.146Z,55.79
2018-05-26T22:58:33.132Z,55.80
2018-05-26T23:00:59.124Z,55.81
2018-05-26T23:03:25.094Z,55.79
2018-05-26T23:05:51.139Z,56.05
2018-05-26T23:08:17.059Z,55.81
2018-05-26T23:10:43.050Z,55.66
2018-05-26T23:13:09.028Z,55.85
2018-05-26T23:15:35.012Z,55.67
2018-05-26T23:18:01.000Z,55.69
2018-05-26T23:20:27.021Z,55.59
2018-05-26T23:22:52.990Z,55.61
2018-05-26T23:25:18.978Z,55.63
2018-05-26T23:27:44.957Z,55.63
2018-05-26T23:30:10.948Z,55.57
2018-05-26T23:32:36.933Z,55.71
2018-05-26T23:35:02.914Z,55.60
2018-05-26T23:37:28.900Z,55.56
2018-05-26T23:39:54.883Z,55.62
2018-05-26T23:42:20.887Z,55.65
2018-05-26T23:44:46.860Z,55.59
2018-05-26T23:47:12.841Z,55.48
2018-05-26T23:49:38.815Z,55.56
2018-05-26T23:52:04.805Z,55.51
2018-05-26T23:54:30.793Z,55.54
2018-05-26T23:56:56.775Z,55.71
2018-05-26T23:59:22.762Z,55.63
